»·PEaware :: BISON14 KFMN-KABQ

BISON14 :: KFMN-KABQ

FLIGHT INFORMATION

Flight Status: Arrived
Operator: Unknown
More flights by this operator :: More flights under this callsign
Pilot: Jordan C. (21690)
Aircraft: BEECH AIRCRAFT T-6A TEXAN
(TEX2)
More flights by this aircraft type
Origin: KFMN Four Corners Regl
United States
Destination: KABQ Albuquerque Intl Sunport
United States
More flights between these airports :: More routes between these airports
Route: +CHACO1 CHACO MISSY V187 ABQ
File this flight plan on PilotEdge
Remarks:
Altitude:
(Current/Filed)
13,000ft
Speed:
(Current/Filed)
270kts
Departed: 12-Jun-20 11:26 AM
Arrived: 12-Jun-20 12:05 PM
Distance/Time
Traveled:
143nm/0:39
Distance/Time
To Go:
Arrived

Flight Plot

Page will automatically refresh every two minutes.

Flight plan parsing failed; only flown route is shown


Map Options




Map Legend


Flown Route
Filed Route
Departure Airport
Arrival Airport
Navaid (VOR, NDB)
Fix

Horizontal Profiles

Position Reports

Time Latitude Longitude Heading Altitude Ground
Speed
12-Jun-20 11:01 36.739619 -108.229220 0 5507ft 0kts
12-Jun-20 11:02 36.739619 -108.229220 238 5507ft 0kts
12-Jun-20 11:03 36.739619 -108.229220 238 5507ft 0kts
12-Jun-20 11:04 36.739619 -108.229220 238 5507ft 0kts
12-Jun-20 11:05 36.739619 -108.229220 238 5507ft 0kts
12-Jun-20 11:06 36.739579 -108.229388 301 5507ft 4kts
12-Jun-20 11:07 36.739600 -108.229410 331 5507ft 0kts
12-Jun-20 11:08 36.739600 -108.229410 331 5507ft 0kts
12-Jun-20 11:09 36.739600 -108.229410 331 5507ft 0kts
12-Jun-20 11:10 36.739600 -108.229410 331 5507ft 0kts
12-Jun-20 11:11 36.739600 -108.229410 331 5507ft 0kts
12-Jun-20 11:12 36.739600 -108.229410 331 5507ft 0kts
12-Jun-20 11:13 36.739600 -108.229410 331 5507ft 0kts
12-Jun-20 11:14 36.739600 -108.229410 331 5507ft 0kts
12-Jun-20 11:15 36.739600 -108.229410 331 5507ft 0kts
12-Jun-20 11:16 36.739600 -108.229410 331 5507ft 0kts
12-Jun-20 11:17 36.739600 -108.229410 331 5507ft 0kts
12-Jun-20 11:18 36.739600 -108.229410 331 5507ft 0kts
12-Jun-20 11:19 36.740139 -108.229171 1 5507ft 5kts
12-Jun-20 11:20 36.740633 -108.226231 91 5507ft 16kts
12-Jun-20 11:21 36.740802 -108.219124 86 5507ft 8kts
12-Jun-20 11:22 36.740815 -108.218692 88 5507ft 0kts
12-Jun-20 11:23 36.740815 -108.218692 88 5507ft 0kts
12-Jun-20 11:24 36.740815 -108.218675 88 5507ft 0kts
12-Jun-20 11:25 36.741548 -108.220388 267 5507ft 74kts
12-Jun-20 11:26 36.722373 -108.248135 141 7341ft 188kts
12-Jun-20 11:27 36.681937 -108.204965 142 10079ft 197kts
12-Jun-20 11:28 36.642061 -108.158733 181 12449ft 207kts
12-Jun-20 11:29 36.582704 -108.160898 139 12942ft 233kts
12-Jun-20 11:30 36.554135 -108.094365 116 13015ft 212kts
12-Jun-20 11:31 36.527856 -108.026729 117 12983ft 217kts
12-Jun-20 11:32 36.493764 -107.952380 115 13132ft 261kts
12-Jun-20 11:33 36.456728 -107.869877 142 12934ft 273kts
12-Jun-20 11:34 36.393634 -107.812313 144 13026ft 272kts
12-Jun-20 11:35 36.326392 -107.758480 147 12843ft 276kts
12-Jun-20 11:36 36.258690 -107.701726 146 12729ft 283kts
12-Jun-20 11:37 36.190346 -107.649299 157 12588ft 267kts
12-Jun-20 11:38 36.122460 -107.606750 142 12593ft 266kts
12-Jun-20 11:39 36.057303 -107.554976 142 12539ft 267kts
12-Jun-20 11:40 35.993233 -107.504060 145 12628ft 266kts
12-Jun-20 11:41 35.928527 -107.451328 148 12520ft 270kts
12-Jun-20 11:42 35.862978 -107.401837 150 12474ft 269kts
12-Jun-20 11:43 35.796298 -107.350514 148 12606ft 265kts
12-Jun-20 11:44 35.729895 -107.305846 153 12515ft 270kts
12-Jun-20 11:45 35.660378 -107.261275 152 12510ft 270kts
12-Jun-20 11:46 35.593659 -107.211173 148 12656ft 267kts
12-Jun-20 11:47 35.525582 -107.162059 150 12559ft 271kts
12-Jun-20 11:48 35.460847 -107.115026 151 12614ft 270kts
12-Jun-20 11:49 35.392189 -107.065352 145 12571ft 271kts
12-Jun-20 11:50 35.328095 -107.015984 142 12307ft 277kts
12-Jun-20 11:51 35.259202 -106.976221 170 10407ft 254kts
12-Jun-20 11:52 35.188134 -106.957625 169 8527ft 234kts
12-Jun-20 11:53 35.126064 -106.942606 168 8466ft 214kts
12-Jun-20 11:54 35.067594 -106.929186 172 8582ft 204kts
12-Jun-20 11:55 35.011827 -106.916654 167 8577ft 202kts
12-Jun-20 11:56 34.955126 -106.902629 169 8191ft 205kts
12-Jun-20 11:57 34.904238 -106.871759 137 6944ft 186kts
12-Jun-20 11:58 34.892483 -106.820562 65 7031ft 162kts
12-Jun-20 11:59 34.911921 -106.763213 48 6951ft 157kts
12-Jun-20 12:00 34.940443 -106.728925 42 6921ft 127kts
12-Jun-20 12:01 34.966040 -106.698157 40 6853ft 122kts
12-Jun-20 12:02 34.990172 -106.668733 38 6204ft 119kts
12-Jun-20 12:03 35.013980 -106.640261 38 5578ft 119kts
12-Jun-20 12:04 35.029264 -106.622180 40 5309ft 16kts
12-Jun-20 12:05 35.030271 -106.622331 313 5309ft 0kts
12-Jun-20 12:06 35.030998 -106.622177 46 5309ft 9kts
12-Jun-20 12:07 35.032337 -106.622515 263 5308ft 0kts
12-Jun-20 12:16 36.346971 -97.909990 217 1279ft 0kts
12-Jun-20 12:17 36.346971 -97.909990 217 1279ft 0kts
12-Jun-20 12:18 39.119914 -108.520814 216 4840ft 0kts

Navigation Log

Ident Type
Flight plan parsing failed, navigation log unavailable